Aviation Digital Data Service (ADDS)

Output produced by METARs form (1051 UTC 27 August 2014)
found at http://www.aviationweather.gov/adds/metars/
 
KDUJ 271038Z AUTO 00000KT 6SM BR BKN024 17/16 A3011 RMK AO2 T01670161
KDUJ 270953Z AUTO 00000KT 10SM SCT026 17/16 A3011 RMK AO2 SLP183 T01670156
KDUJ 270853Z AUTO 24003KT 10SM FEW025 17/16 A3011 RMK AO2 SLP183 T01720156 58001
KDUJ 270753Z AUTO 22003KT 10SM BKN034 OVC050 17/16 A3011 RMK AO2 SLP184 T01720161
KDUJ 270653Z AUTO 26003KT 10SM CLR 18/16 A3011 RMK AO2 SLP185 T01780156
KDUJ 270553Z AUTO 00000KT 10SM CLR 17/16 A3011 RMK AO2 SLP185 T01720161 10217 20172 55002
KDUJ 270453Z AUTO 26004KT 10SM CLR 19/16 A3011 RMK AO2 SLP183 T01940161 402610117
KDUJ 270353Z AUTO 00000KT 10SM CLR 20/16 A3010 RMK AO2 SLP180 T02000161
KDUJ 270253Z AUTO 20004KT 10SM CLR 21/16 A3012 RMK AO2 SLP187 T02060161 58009
KDUJ 270153Z AUTO 21004KT 10SM CLR 19/17 A3014 RMK AO2 SLP198 T01940167
KDUJ 270053Z AUTO 22004KT 10SM CLR 21/17 A3014 RMK AO2 SLP197 T02110167
KDUJ 262353Z AUTO 22003KT 10SM CLR 22/17 A3015 RMK AO2 SLP202 T02170172 10261 20217 53004
KDUJ 262253Z AUTO 22004KT 10SM CLR 24/17 A3014 RMK AO2 SLP197 T02440172
KDUJ 262153Z AUTO 19006KT 10SM CLR 26/16 A3014 RMK AO2 SLP196 T02560161
KDUJ 262053Z AUTO VRB03KT 10SM CLR 26/16 A3013 RMK AO2 SLP194 T02560161 56020
KDUJ 261953Z AUTO VRB03KT 10SM CLR 26/16 A3015 RMK AO2 SLP199 T02560161
KDUJ 261853Z AUTO VRB05KT 10SM CLR 26/17 A3017 RMK AO2 SLP205 T02560167
KDUJ 261753Z AUTO 00000KT 10SM FEW038 25/16 A3020 RMK AO2 SLP215 T02500161 10250 20139 58007
KDUJ 261653Z AUTO VRB04KT 10SM CLR 24/14 A3021 RMK AO2 SLP222 T02390139
KDUJ 261553Z AUTO 18007KT 10SM CLR 23/15 A3021 RMK AO2 SLP222 T02280150
KDUJ 261453Z AUTO 24006KT 10SM CLR 21/14 A3022 RMK AO2 SLP223 T02110144 50007
KDUJ 261353Z AUTO 00000KT 10SM CLR 19/14 A3022 RMK AO2 SLP225 T01890144
KDUJ 261253Z AUTO 14003KT 10SM CLR 17/14 A3021 RMK AO2 SLP222 T01670139
KDUJ 261153Z AUTO 10005KT 10SM CLR 14/13 A3020 RMK AO2 SLP219 T01390133 10172 20117 50004
KDUJ 261102Z AUTO 10003KT 3SM BR CLR 13/13 A3020 RMK AO2 T01280128
KDUJ 261059Z AUTO 10003KT 1SM BR CLR 13/13 A3020 RMK AO2 VIS 1/4V5 T01280128
KDUJ 261053Z AUTO 00000KT 1/4SM FG CLR 12/12 A3020 RMK AO2 SLP221 T01220122
KDUJ 261050Z AUTO 00000KT 1/4SM FG CLR 12/12 A3020 RMK AO2
KDUJ 261042Z AUTO 00000KT 1/2SM FG CLR 12/12 A3020 RMK AO2 VIS M1/4V5 T01220122
KDUJ 261036Z AUTO 00000KT 2SM BR CLR 13/13 A3020 RMK AO2 VIS 3/4V5 T01280128
KDUJ 261028Z AUTO 00000KT 3/4SM BR CLR 12/12 A3020 RMK AO2 T01220122
KDUJ 261015Z AUTO 00000KT 6SM BR FEW002 13/13 A3019 RMK AO2 T01280128
KDUJ 261006Z AUTO 00000KT 2SM BR SCT002 13/13 A3019 RMK AO2 T01280128
KDUJ 261003Z AUTO 00000KT 1SM BR VV002 13/13 A3019 RMK AO2 T01280128
KDUJ 260953Z AUTO 00000KT 1/4SM FG VV002 12/12 A3018 RMK AO2 SLP215 T01220122
KDUJ 260933Z AUTO 07004KT 1/4SM FG VV002 12/12 A3018 RMK AO2 T01220122
KDUJ 260928Z AUTO 04003KT 1 1/4SM BR FEW002 12/12 A3018 RMK AO2 T01170117
KDUJ 260915Z AUTO 10005KT 2SM BR CLR 13/12 A3018 RMK AO2 T01280122
KDUJ 260908Z AUTO 11005KT 1 3/4SM BR CLR 13/13 A3018 RMK AO2 VIS 1/2V5 T01280128
KDUJ 260853Z AUTO 00000KT 10SM CLR 14/13 A3019 RMK AO2 SLP214 T01390128 55001
KDUJ 260753Z AUTO 00000KT 10SM CLR 14/13 A3018 RMK AO2 SLP211 T01440133 $
KDUJ 260653Z AUTO 13005KT 10SM CLR 16/14 A3018 RMK AO2 SLP209 T01560139
KDUJ 260553Z AUTO 13005KT 10SM CLR 16/14 A3019 RMK AO2 SLP214 T01560144 10206 20150 50004
KDUJ 260453Z AUTO 11003KT 10SM CLR 15/14 A3019 RMK AO2 SLP214 T01500144 402390128
KDUJ 260353Z AUTO 14004KT 10SM CLR 17/15 A3018 RMK AO2 SLP211 T01670150
KDUJ 260253Z AUTO 13006KT 10SM CLR 18/14 A3018 RMK AO2 SLP209 T01780144 56000
KDUJ 260153Z AUTO 13005KT 10SM CLR 18/15 A3018 RMK AO2 SLP212 T01830150
KDUJ 260053Z AUTO 13005KT 10SM CLR 19/15 A3017 RMK AO2 SLP210 T01940150
KDUJ 252353Z AUTO 15003KT 10SM CLR 21/15 A3018 RMK AO2 SLP212 T02060150 10239 20206 58002
KDUJ 252253Z AUTO 16003KT 10SM CLR 22/14 A3018 RMK AO2 SLP213 T02220144